sensor_id;sensor_type;location;lat;lon;timestamp;P1;durP1;ratioP1;P2;durP2;ratioP2
14907;SDS011;7545;52.092;7.006;2022-09-28T00:00:06;3.35;;;2.20;;
14907;SDS011;7545;52.092;7.006;2022-09-28T00:02:33;4.53;;;3.53;;
14907;SDS011;7545;52.092;7.006;2022-09-28T00:04:59;4.35;;;2.38;;
14907;SDS011;7545;52.092;7.006;2022-09-28T00:07:26;4.83;;;2.60;;
14907;SDS011;7545;52.092;7.006;2022-09-28T00:09:52;4.35;;;2.95;;
14907;SDS011;7545;52.092;7.006;2022-09-28T00:12:18;3.53;;;2.97;;
14907;SDS011;7545;52.092;7.006;2022-09-28T00:14:45;3.22;;;2.67;;
14907;SDS011;7545;52.092;7.006;2022-09-28T00:17:11;3.40;;;2.42;;
14907;SDS011;7545;52.092;7.006;2022-09-28T00:19:37;4.25;;;2.83;;
14907;SDS011;7545;52.092;7.006;2022-09-28T00:22:04;4.93;;;3.47;;
14907;SDS011;7545;52.092;7.006;2022-09-28T00:24:30;2.85;;;2.58;;
14907;SDS011;7545;52.092;7.006;2022-09-28T00:26:56;5.35;;;3.58;;
14907;SDS011;7545;52.092;7.006;2022-09-28T00:29:31;2.85;;;2.42;;
14907;SDS011;7545;52.092;7.006;2022-09-28T00:32:00;3.72;;;2.60;;
14907;SDS011;7545;52.092;7.006;2022-09-28T00:34:31;5.15;;;2.95;;
14907;SDS011;7545;52.092;7.006;2022-09-28T00:36:59;3.28;;;2.67;;
14907;SDS011;7545;52.092;7.006;2022-09-28T00:39:25;4.60;;;2.85;;
14907;SDS011;7545;52.092;7.006;2022-09-28T00:41:51;5.10;;;2.88;;
14907;SDS011;7545;52.092;7.006;2022-09-28T00:46:47;3.20;;;2.83;;
14907;SDS011;7545;52.092;7.006;2022-09-28T00:49:15;2.92;;;2.67;;
14907;SDS011;7545;52.092;7.006;2022-09-28T00:51:44;3.22;;;2.30;;
14907;SDS011;7545;52.092;7.006;2022-09-28T00:54:13;4.70;;;2.80;;
14907;SDS011;7545;52.092;7.006;2022-09-28T00:56:41;3.47;;;2.58;;
14907;SDS011;7545;52.092;7.006;2022-09-28T00:59:11;3.10;;;2.33;;
14907;SDS011;7545;52.092;7.006;2022-09-28T01:01:38;2.85;;;2.55;;
14907;SDS011;7545;52.092;7.006;2022-09-28T01:04:03;3.80;;;2.65;;
14907;SDS011;7545;52.092;7.006;2022-09-28T01:06:32;5.45;;;2.67;;
14907;SDS011;7545;52.092;7.006;2022-09-28T01:09:04;3.28;;;2.90;;
14907;SDS011;7545;52.092;7.006;2022-09-28T01:11:34;4.85;;;2.63;;
14907;SDS011;7545;52.092;7.006;2022-09-28T01:14:01;3.58;;;2.63;;
14907;SDS011;7545;52.092;7.006;2022-09-28T01:19:33;3.78;;;2.50;;
14907;SDS011;7545;52.092;7.006;2022-09-28T01:22:30;3.00;;;2.75;;
14907;SDS011;7545;52.092;7.006;2022-09-28T01:29:55;5.10;;;2.60;;
14907;SDS011;7545;52.092;7.006;2022-09-28T01:32:43;4.35;;;3.03;;
14907;SDS011;7545;52.092;7.006;2022-09-28T01:35:43;4.22;;;3.75;;
14907;SDS011;7545;52.092;7.006;2022-09-28T01:38:13;3.58;;;3.00;;
14907;SDS011;7545;52.092;7.006;2022-09-28T01:40:43;4.28;;;3.65;;
14907;SDS011;7545;52.092;7.006;2022-09-28T01:43:12;3.90;;;3.50;;
14907;SDS011;7545;52.092;7.006;2022-09-28T01:45:46;5.35;;;4.10;;
14907;SDS011;7545;52.092;7.006;2022-09-28T01:48:44;5.07;;;3.40;;
14907;SDS011;7545;52.092;7.006;2022-09-28T01:51:28;5.70;;;3.90;;
14907;SDS011;7545;52.092;7.006;2022-09-28T01:54:00;5.45;;;4.25;;
14907;SDS011;7545;52.092;7.006;2022-09-28T01:56:39;5.20;;;3.85;;
14907;SDS011;7545;52.092;7.006;2022-09-28T01:59:18;4.25;;;3.25;;
14907;SDS011;7545;52.092;7.006;2022-09-28T02:01:53;4.80;;;4.03;;
14907;SDS011;7545;52.092;7.006;2022-09-28T02:05:05;5.53;;;4.22;;
14907;SDS011;7545;52.092;7.006;2022-09-28T02:07:32;4.38;;;3.97;;
14907;SDS011;7545;52.092;7.006;2022-09-28T02:10:05;6.30;;;4.28;;
14907;SDS011;7545;52.092;7.006;2022-09-28T02:12:47;5.82;;;4.65;;
14907;SDS011;7545;52.092;7.006;2022-09-28T02:17:46;5.97;;;4.65;;
14907;SDS011;7545;52.092;7.006;2022-09-28T02:20:13;5.97;;;4.70;;
14907;SDS011;7545;52.092;7.006;2022-09-28T02:22:44;6.65;;;5.13;;
14907;SDS011;7545;52.092;7.006;2022-09-28T02:25:59;7.07;;;5.32;;
14907;SDS011;7545;52.092;7.006;2022-09-28T02:28:10;6.72;;;5.38;;
14907;SDS011;7545;52.092;7.006;2022-09-28T02:30:38;7.15;;;5.07;;
14907;SDS011;7545;52.092;7.006;2022-09-28T02:33:14;7.40;;;6.43;;
14907;SDS011;7545;52.092;7.006;2022-09-28T02:35:53;8.60;;;6.43;;
14907;SDS011;7545;52.092;7.006;2022-09-28T02:38:19;9.95;;;6.18;;
14907;SDS011;7545;52.092;7.006;2022-09-28T02:40:51;10.70;;;6.97;;
14907;SDS011;7545;52.092;7.006;2022-09-28T02:43:33;8.38;;;6.50;;
14907;SDS011;7545;52.092;7.006;2022-09-28T02:46:09;11.75;;;7.47;;
14907;SDS011;7545;52.092;7.006;2022-09-28T02:48:57;8.52;;;6.68;;
14907;SDS011;7545;52.092;7.006;2022-09-28T03:05:33;6.78;;;6.07;;
14907;SDS011;7545;52.092;7.006;2022-09-28T03:08:13;8.85;;;6.75;;
14907;SDS011;7545;52.092;7.006;2022-09-28T03:13:31;8.43;;;5.57;;
14907;SDS011;7545;52.092;7.006;2022-09-28T03:16:08;8.70;;;6.53;;
14907;SDS011;7545;52.092;7.006;2022-09-28T03:18:40;9.57;;;6.57;;
14907;SDS011;7545;52.092;7.006;2022-09-28T03:21:06;7.72;;;6.35;;
14907;SDS011;7545;52.092;7.006;2022-09-28T03:23:35;8.13;;;5.82;;
14907;SDS011;7545;52.092;7.006;2022-09-28T03:26:00;8.63;;;7.20;;
14907;SDS011;7545;52.092;7.006;2022-09-28T03:28:27;7.95;;;6.75;;
14907;SDS011;7545;52.092;7.006;2022-09-28T03:30:53;8.93;;;6.70;;
14907;SDS011;7545;52.092;7.006;2022-09-28T03:33:20;10.98;;;6.47;;
14907;SDS011;7545;52.092;7.006;2022-09-28T03:35:46;13.02;;;7.50;;
14907;SDS011;7545;52.092;7.006;2022-09-28T03:38:16;9.13;;;6.87;;
14907;SDS011;7545;52.092;7.006;2022-09-28T03:40:42;10.07;;;7.13;;
14907;SDS011;7545;52.092;7.006;2022-09-28T03:43:08;9.57;;;7.23;;
14907;SDS011;7545;52.092;7.006;2022-09-28T03:45:34;9.47;;;7.13;;
14907;SDS011;7545;52.092;7.006;2022-09-28T03:47:59;10.07;;;8.25;;
14907;SDS011;7545;52.092;7.006;2022-09-28T03:50:25;12.53;;;7.73;;
14907;SDS011;7545;52.092;7.006;2022-09-28T03:52:50;13.10;;;8.47;;
14907;SDS011;7545;52.092;7.006;2022-09-28T03:55:16;7.60;;;6.53;;
14907;SDS011;7545;52.092;7.006;2022-09-28T03:57:42;11.47;;;7.10;;
14907;SDS011;7545;52.092;7.006;2022-09-28T04:00:07;8.67;;;6.60;;
14907;SDS011;7545;52.092;7.006;2022-09-28T04:02:34;11.27;;;7.33;;
14907;SDS011;7545;52.092;7.006;2022-09-28T04:04:59;10.00;;;7.47;;
14907;SDS011;7545;52.092;7.006;2022-09-28T04:07:25;11.37;;;7.93;;
14907;SDS011;7545;52.092;7.006;2022-09-28T04:09:51;11.73;;;8.10;;
14907;SDS011;7545;52.092;7.006;2022-09-28T04:12:16;10.80;;;7.33;;
14907;SDS011;7545;52.092;7.006;2022-09-28T04:14:42;9.13;;;7.77;;
14907;SDS011;7545;52.092;7.006;2022-09-28T04:17:08;12.93;;;7.73;;
14907;SDS011;7545;52.092;7.006;2022-09-28T04:19:33;13.80;;;8.98;;
14907;SDS011;7545;52.092;7.006;2022-09-28T04:21:59;10.90;;;7.80;;
14907;SDS011;7545;52.092;7.006;2022-09-28T04:24:25;9.37;;;8.03;;
14907;SDS011;7545;52.092;7.006;2022-09-28T04:26:51;10.00;;;7.93;;
14907;SDS011;7545;52.092;7.006;2022-09-28T04:29:36;11.40;;;8.30;;
14907;SDS011;7545;52.092;7.006;2022-09-28T04:32:03;12.87;;;8.77;;
14907;SDS011;7545;52.092;7.006;2022-09-28T04:34:29;10.77;;;8.00;;
14907;SDS011;7545;52.092;7.006;2022-09-28T04:36:55;10.67;;;8.43;;
14907;SDS011;7545;52.092;7.006;2022-09-28T04:39:21;12.13;;;9.17;;
14907;SDS011;7545;52.092;7.006;2022-09-28T04:41:47;10.70;;;9.23;;
14907;SDS011;7545;52.092;7.006;2022-09-28T04:44:13;12.07;;;9.17;;
14907;SDS011;7545;52.092;7.006;2022-09-28T04:46:39;16.20;;;9.93;;
14907;SDS011;7545;52.092;7.006;2022-09-28T04:49:04;12.87;;;9.37;;
14907;SDS011;7545;52.092;7.006;2022-09-28T04:51:30;11.97;;;8.70;;
14907;SDS011;7545;52.092;7.006;2022-09-28T04:53:56;12.43;;;8.87;;
14907;SDS011;7545;52.092;7.006;2022-09-28T04:56:22;11.37;;;8.47;;
14907;SDS011;7545;52.092;7.006;2022-09-28T04:58:48;12.53;;;8.90;;
14907;SDS011;7545;52.092;7.006;2022-09-28T05:01:14;11.23;;;8.80;;
14907;SDS011;7545;52.092;7.006;2022-09-28T05:03:41;10.20;;;8.03;;
14907;SDS011;7545;52.092;7.006;2022-09-28T05:06:08;10.57;;;8.70;;
14907;SDS011;7545;52.092;7.006;2022-09-28T05:08:36;11.03;;;8.40;;
14907;SDS011;7545;52.092;7.006;2022-09-28T05:11:03;12.07;;;8.77;;
14907;SDS011;7545;52.092;7.006;2022-09-28T05:13:30;13.43;;;8.40;;
14907;SDS011;7545;52.092;7.006;2022-09-28T05:15:57;10.52;;;8.15;;
14907;SDS011;7545;52.092;7.006;2022-09-28T05:18:23;11.03;;;8.73;;
14907;SDS011;7545;52.092;7.006;2022-09-28T05:20:49;12.37;;;8.70;;
14907;SDS011;7545;52.092;7.006;2022-09-28T05:23:15;10.70;;;8.17;;
14907;SDS011;7545;52.092;7.006;2022-09-28T05:25:41;10.40;;;8.00;;
14907;SDS011;7545;52.092;7.006;2022-09-28T05:28:07;14.10;;;9.17;;
14907;SDS011;7545;52.092;7.006;2022-09-28T05:30:34;10.02;;;8.02;;
14907;SDS011;7545;52.092;7.006;2022-09-28T05:33:00;13.80;;;8.13;;
14907;SDS011;7545;52.092;7.006;2022-09-28T05:35:26;11.07;;;8.37;;
14907;SDS011;7545;52.092;7.006;2022-09-28T05:37:53;11.10;;;8.77;;
14907;SDS011;7545;52.092;7.006;2022-09-28T05:40:19;10.97;;;7.77;;
14907;SDS011;7545;52.092;7.006;2022-09-28T05:42:45;11.43;;;8.23;;
14907;SDS011;7545;52.092;7.006;2022-09-28T05:45:11;10.25;;;7.55;;
14907;SDS011;7545;52.092;7.006;2022-09-28T05:47:40;10.17;;;7.57;;
14907;SDS011;7545;52.092;7.006;2022-09-28T05:50:08;10.17;;;6.97;;
14907;SDS011;7545;52.092;7.006;2022-09-28T05:52:36;9.60;;;7.55;;
14907;SDS011;7545;52.092;7.006;2022-09-28T05:55:02;11.00;;;7.67;;
14907;SDS011;7545;52.092;7.006;2022-09-28T05:57:29;8.65;;;7.22;;
14907;SDS011;7545;52.092;7.006;2022-09-28T05:59:54;11.73;;;8.17;;
14907;SDS011;7545;52.092;7.006;2022-09-28T06:02:20;11.02;;;7.20;;
14907;SDS011;7545;52.092;7.006;2022-09-28T06:04:46;8.83;;;7.10;;
14907;SDS011;7545;52.092;7.006;2022-09-28T06:07:13;9.95;;;7.45;;
14907;SDS011;7545;52.092;7.006;2022-09-28T06:09:39;8.47;;;6.30;;
14907;SDS011;7545;52.092;7.006;2022-09-28T06:12:05;10.33;;;7.13;;
14907;SDS011;7545;52.092;7.006;2022-09-28T06:14:30;10.70;;;8.27;;
14907;SDS011;7545;52.092;7.006;2022-09-28T06:16:56;11.37;;;7.10;;
14907;SDS011;7545;52.092;7.006;2022-09-28T06:19:21;105.30;;;23.53;;
14907;SDS011;7545;52.092;7.006;2022-09-28T06:21:47;60.20;;;13.80;;
14907;SDS011;7545;52.092;7.006;2022-09-28T06:24:12;14.82;;;8.75;;
14907;SDS011;7545;52.092;7.006;2022-09-28T06:26:38;15.27;;;7.00;;
14907;SDS011;7545;52.092;7.006;2022-09-28T06:29:04;8.87;;;7.30;;
14907;SDS011;7545;52.092;7.006;2022-09-28T06:31:29;12.35;;;7.60;;
14907;SDS011;7545;52.092;7.006;2022-09-28T06:33:55;10.37;;;7.20;;
14907;SDS011;7545;52.092;7.006;2022-09-28T06:36:21;21.37;;;16.77;;
14907;SDS011;7545;52.092;7.006;2022-09-28T06:38:47;14.52;;;12.15;;
14907;SDS011;7545;52.092;7.006;2022-09-28T06:41:13;14.27;;;9.18;;
14907;SDS011;7545;52.092;7.006;2022-09-28T06:43:39;17.63;;;7.60;;
14907;SDS011;7545;52.092;7.006;2022-09-28T06:46:05;95.13;;;23.17;;
14907;SDS011;7545;52.092;7.006;2022-09-28T06:48:33;28.20;;;10.35;;
14907;SDS011;7545;52.092;7.006;2022-09-28T06:50:59;17.53;;;8.13;;
14907;SDS011;7545;52.092;7.006;2022-09-28T06:53:25;10.47;;;7.90;;
14907;SDS011;7545;52.092;7.006;2022-09-28T06:55:52;11.57;;;8.13;;
14907;SDS011;7545;52.092;7.006;2022-09-28T06:58:19;10.20;;;7.65;;
14907;SDS011;7545;52.092;7.006;2022-09-28T07:00:46;11.37;;;7.70;;
14907;SDS011;7545;52.092;7.006;2022-09-28T07:03:13;13.40;;;8.93;;
14907;SDS011;7545;52.092;7.006;2022-09-28T07:05:41;10.93;;;7.40;;
14907;SDS011;7545;52.092;7.006;2022-09-28T07:08:08;10.35;;;7.32;;
14907;SDS011;7545;52.092;7.006;2022-09-28T07:10:39;10.05;;;7.40;;
14907;SDS011;7545;52.092;7.006;2022-09-28T07:13:05;10.20;;;7.32;;
14907;SDS011;7545;52.092;7.006;2022-09-28T07:15:32;10.50;;;7.10;;
14907;SDS011;7545;52.092;7.006;2022-09-28T07:17:58;11.37;;;8.67;;
14907;SDS011;7545;52.092;7.006;2022-09-28T07:20:24;9.73;;;6.88;;
14907;SDS011;7545;52.092;7.006;2022-09-28T07:22:54;10.32;;;7.18;;
14907;SDS011;7545;52.092;7.006;2022-09-28T07:25:20;10.47;;;7.03;;
14907;SDS011;7545;52.092;7.006;2022-09-28T07:27:47;10.30;;;6.40;;
14907;SDS011;7545;52.092;7.006;2022-09-28T07:30:13;10.75;;;7.15;;
14907;SDS011;7545;52.092;7.006;2022-09-28T07:32:39;9.57;;;7.25;;
14907;SDS011;7545;52.092;7.006;2022-09-28T07:35:05;8.60;;;6.18;;
14907;SDS011;7545;52.092;7.006;2022-09-28T07:37:33;12.57;;;6.13;;
14907;SDS011;7545;52.092;7.006;2022-09-28T07:40:00;12.55;;;7.07;;
14907;SDS011;7545;52.092;7.006;2022-09-28T07:42:45;9.88;;;6.90;;
14907;SDS011;7545;52.092;7.006;2022-09-28T07:45:11;12.45;;;6.82;;
14907;SDS011;7545;52.092;7.006;2022-09-28T07:47:37;12.10;;;6.93;;
14907;SDS011;7545;52.092;7.006;2022-09-28T07:50:02;10.57;;;6.53;;
14907;SDS011;7545;52.092;7.006;2022-09-28T07:52:28;9.93;;;6.53;;
14907;SDS011;7545;52.092;7.006;2022-09-28T07:54:54;8.30;;;6.32;;
14907;SDS011;7545;52.092;7.006;2022-09-28T07:57:20;11.63;;;6.75;;
14907;SDS011;7545;52.092;7.006;2022-09-28T07:59:47;8.68;;;6.95;;
14907;SDS011;7545;52.092;7.006;2022-09-28T08:02:14;7.40;;;6.40;;
14907;SDS011;7545;52.092;7.006;2022-09-28T08:04:42;11.75;;;7.63;;
14907;SDS011;7545;52.092;7.006;2022-09-28T08:07:08;9.60;;;6.18;;
14907;SDS011;7545;52.092;7.006;2022-09-28T08:09:35;11.70;;;7.57;;
14907;SDS011;7545;52.092;7.006;2022-09-28T08:12:01;14.50;;;7.78;;
14907;SDS011;7545;52.092;7.006;2022-09-28T08:14:28;10.10;;;7.53;;
14907;SDS011;7545;52.092;7.006;2022-09-28T08:16:57;13.70;;;7.70;;
14907;SDS011;7545;52.092;7.006;2022-09-28T08:19:24;10.73;;;7.43;;
14907;SDS011;7545;52.092;7.006;2022-09-28T08:21:49;10.25;;;7.35;;
14907;SDS011;7545;52.092;7.006;2022-09-28T08:24:15;10.77;;;7.68;;
14907;SDS011;7545;52.092;7.006;2022-09-28T08:26:42;8.75;;;6.95;;
14907;SDS011;7545;52.092;7.006;2022-09-28T08:29:08;8.32;;;6.95;;
14907;SDS011;7545;52.092;7.006;2022-09-28T08:31:34;9.30;;;7.32;;
14907;SDS011;7545;52.092;7.006;2022-09-28T08:34:00;13.38;;;7.68;;
14907;SDS011;7545;52.092;7.006;2022-09-28T08:36:26;9.73;;;6.63;;
14907;SDS011;7545;52.092;7.006;2022-09-28T08:38:52;10.90;;;7.30;;
14907;SDS011;7545;52.092;7.006;2022-09-28T08:44:25;10.85;;;7.45;;
14907;SDS011;7545;52.092;7.006;2022-09-28T08:47:04;8.98;;;6.60;;
14907;SDS011;7545;52.092;7.006;2022-09-28T08:49:53;8.35;;;6.55;;
14907;SDS011;7545;52.092;7.006;2022-09-28T08:52:29;8.20;;;7.30;;
14907;SDS011;7545;52.092;7.006;2022-09-28T08:55:02;10.05;;;7.28;;
14907;SDS011;7545;52.092;7.006;2022-09-28T09:03:34;7.65;;;6.32;;
14907;SDS011;7545;52.092;7.006;2022-09-28T09:06:23;7.80;;;6.70;;
14907;SDS011;7545;52.092;7.006;2022-09-28T09:12:22;11.63;;;6.68;;
14907;SDS011;7545;52.092;7.006;2022-09-28T09:18:05;12.63;;;7.35;;
14907;SDS011;7545;52.092;7.006;2022-09-28T09:20:56;12.50;;;8.07;;
14907;SDS011;7545;52.092;7.006;2022-09-28T09:25:53;8.90;;;6.57;;
14907;SDS011;7545;52.092;7.006;2022-09-28T09:34:01;10.60;;;4.70;;
14907;SDS011;7545;52.092;7.006;2022-09-28T09:39:38;9.15;;;4.55;;
14907;SDS011;7545;52.092;7.006;2022-09-28T09:42:28;6.53;;;4.78;;
14907;SDS011;7545;52.092;7.006;2022-09-28T09:48:12;8.32;;;5.72;;
14907;SDS011;7545;52.092;7.006;2022-09-28T09:53:18;5.20;;;4.45;;
14907;SDS011;7545;52.092;7.006;2022-09-28T09:55:54;7.60;;;4.28;;
14907;SDS011;7545;52.092;7.006;2022-09-28T09:58:29;6.50;;;4.72;;
14907;SDS011;7545;52.092;7.006;2022-09-28T10:01:11;5.22;;;4.45;;
14907;SDS011;7545;52.092;7.006;2022-09-28T10:03:40;7.78;;;4.53;;
14907;SDS011;7545;52.092;7.006;2022-09-28T10:06:13;6.00;;;4.53;;
14907;SDS011;7545;52.092;7.006;2022-09-28T10:08:43;5.75;;;3.67;;
14907;SDS011;7545;52.092;7.006;2022-09-28T10:11:14;5.40;;;3.55;;
14907;SDS011;7545;52.092;7.006;2022-09-28T10:13:47;3.55;;;3.03;;
14907;SDS011;7545;52.092;7.006;2022-09-28T10:16:14;3.60;;;2.38;;
14907;SDS011;7545;52.092;7.006;2022-09-28T10:18:41;6.32;;;2.70;;
14907;SDS011;7545;52.092;7.006;2022-09-28T10:21:10;5.82;;;3.13;;
14907;SDS011;7545;52.092;7.006;2022-09-28T10:23:42;5.55;;;3.08;;
14907;SDS011;7545;52.092;7.006;2022-09-28T10:26:11;7.15;;;3.05;;
14907;SDS011;7545;52.092;7.006;2022-09-28T10:34:07;4.63;;;3.42;;
14907;SDS011;7545;52.092;7.006;2022-09-28T10:36:43;4.88;;;3.63;;
14907;SDS011;7545;52.092;7.006;2022-09-28T10:39:30;4.28;;;3.25;;
14907;SDS011;7545;52.092;7.006;2022-09-28T10:41:59;6.78;;;3.40;;
14907;SDS011;7545;52.092;7.006;2022-09-28T10:44:29;5.88;;;2.47;;
14907;SDS011;7545;52.092;7.006;2022-09-28T10:47:01;4.18;;;2.95;;
14907;SDS011;7545;52.092;7.006;2022-09-28T10:49:39;3.03;;;2.55;;
14907;SDS011;7545;52.092;7.006;2022-09-28T10:52:27;3.50;;;2.50;;
14907;SDS011;7545;52.092;7.006;2022-09-28T10:54:55;3.30;;;1.95;;
14907;SDS011;7545;52.092;7.006;2022-09-28T10:57:34;3.45;;;2.95;;
14907;SDS011;7545;52.092;7.006;2022-09-28T11:00:02;5.20;;;3.58;;
14907;SDS011;7545;52.092;7.006;2022-09-28T11:02:31;5.05;;;3.55;;
14907;SDS011;7545;52.092;7.006;2022-09-28T11:05:00;5.32;;;4.10;;
14907;SDS011;7545;52.092;7.006;2022-09-28T11:07:29;4.60;;;3.13;;
14907;SDS011;7545;52.092;7.006;2022-09-28T11:09:57;4.45;;;3.35;;
14907;SDS011;7545;52.092;7.006;2022-09-28T11:12:25;3.60;;;3.22;;
14907;SDS011;7545;52.092;7.006;2022-09-28T11:14:57;4.88;;;3.47;;
14907;SDS011;7545;52.092;7.006;2022-09-28T11:17:30;3.85;;;3.17;;
14907;SDS011;7545;52.092;7.006;2022-09-28T11:20:01;9.02;;;3.42;;
14907;SDS011;7545;52.092;7.006;2022-09-28T11:22:49;4.63;;;2.97;;
14907;SDS011;7545;52.092;7.006;2022-09-28T11:28:03;3.75;;;3.33;;
14907;SDS011;7545;52.092;7.006;2022-09-28T11:30:51;4.10;;;3.13;;
14907;SDS011;7545;52.092;7.006;2022-09-28T11:33:23;3.30;;;2.92;;
14907;SDS011;7545;52.092;7.006;2022-09-28T11:35:57;3.47;;;3.17;;
14907;SDS011;7545;52.092;7.006;2022-09-28T11:38:32;4.22;;;3.42;;
14907;SDS011;7545;52.092;7.006;2022-09-28T11:51:52;5.82;;;3.70;;
14907;SDS011;7545;52.092;7.006;2022-09-28T11:54:31;2.08;;;1.90;;
14907;SDS011;7545;52.092;7.006;2022-09-28T11:57:01;2.60;;;1.38;;
14907;SDS011;7545;52.092;7.006;2022-09-28T12:02:19;1.75;;;1.65;;
14907;SDS011;7545;52.092;7.006;2022-09-28T12:05:08;1.95;;;1.77;;
14907;SDS011;7545;52.092;7.006;2022-09-28T12:07:41;4.25;;;2.30;;
14907;SDS011;7545;52.092;7.006;2022-09-28T12:12:50;2.47;;;2.10;;
14907;SDS011;7545;52.092;7.006;2022-09-28T12:15:25;3.60;;;2.00;;
14907;SDS011;7545;52.092;7.006;2022-09-28T12:18:02;2.30;;;1.67;;
14907;SDS011;7545;52.092;7.006;2022-09-28T12:20:45;4.15;;;1.70;;
14907;SDS011;7545;52.092;7.006;2022-09-28T12:23:21;2.65;;;1.60;;
14907;SDS011;7545;52.092;7.006;2022-09-28T12:25:56;2.00;;;1.67;;
14907;SDS011;7545;52.092;7.006;2022-09-28T12:28:37;2.25;;;1.50;;
14907;SDS011;7545;52.092;7.006;2022-09-28T12:31:13;1.77;;;1.20;;
14907;SDS011;7545;52.092;7.006;2022-09-28T12:33:55;1.65;;;1.15;;
14907;SDS011;7545;52.092;7.006;2022-09-28T12:41:29;1.52;;;0.60;;
14907;SDS011;7545;52.092;7.006;2022-09-28T12:44:22;1.10;;;1.00;;
14907;SDS011;7545;52.092;7.006;2022-09-28T13:04:05;2.38;;;0.60;;
14907;SDS011;7545;52.092;7.006;2022-09-28T13:09:24;0.80;;;0.73;;
14907;SDS011;7545;52.092;7.006;2022-09-28T13:23:09;0.82;;;0.60;;
14907;SDS011;7545;52.092;7.006;2022-09-28T13:25:43;0.60;;;0.60;;
14907;SDS011;7545;52.092;7.006;2022-09-28T13:28:19;0.55;;;0.50;;
14907;SDS011;7545;52.092;7.006;2022-09-28T13:30:47;2.67;;;0.70;;
14907;SDS011;7545;52.092;7.006;2022-09-28T13:33:16;0.93;;;0.50;;
14907;SDS011;7545;52.092;7.006;2022-09-28T13:35:47;4.22;;;0.60;;
14907;SDS011;7545;52.092;7.006;2022-09-28T13:44:18;1.70;;;0.50;;
14907;SDS011;7545;52.092;7.006;2022-09-28T13:46:19;0.80;;;0.40;;
14907;SDS011;7545;52.092;7.006;2022-09-28T13:49:07;0.82;;;0.40;;
14907;SDS011;7545;52.092;7.006;2022-09-28T13:51:38;0.60;;;0.50;;
14907;SDS011;7545;52.092;7.006;2022-09-28T14:04:59;1.73;;;0.40;;
14907;SDS011;7545;52.092;7.006;2022-09-28T14:10:16;0.98;;;0.40;;
14907;SDS011;7545;52.092;7.006;2022-09-28T14:12:49;1.00;;;0.40;;
14907;SDS011;7545;52.092;7.006;2022-09-28T14:17:58;0.65;;;0.50;;
14907;SDS011;7545;52.092;7.006;2022-09-28T14:20:38;0.52;;;0.50;;
14907;SDS011;7545;52.092;7.006;2022-09-28T14:26:05;0.35;;;0.30;;
14907;SDS011;7545;52.092;7.006;2022-09-28T14:28:55;0.90;;;0.70;;
14907;SDS011;7545;52.092;7.006;2022-09-28T14:31:44;0.98;;;0.52;;
14907;SDS011;7545;52.092;7.006;2022-09-28T14:36:54;1.10;;;0.80;;
14907;SDS011;7545;52.092;7.006;2022-09-28T14:39:38;0.70;;;0.55;;
14907;SDS011;7545;52.092;7.006;2022-09-28T14:42:27;1.00;;;0.45;;
14907;SDS011;7545;52.092;7.006;2022-09-28T14:53:11;0.52;;;0.50;;
14907;SDS011;7545;52.092;7.006;2022-09-28T14:55:43;1.10;;;0.80;;
14907;SDS011;7545;52.092;7.006;2022-09-28T14:58:18;2.13;;;0.65;;
14907;SDS011;7545;52.092;7.006;2022-09-28T15:00:46;1.23;;;0.57;;
14907;SDS011;7545;52.092;7.006;2022-09-28T15:03:16;0.50;;;0.50;;
14907;SDS011;7545;52.092;7.006;2022-09-28T15:05:47;1.38;;;0.60;;
14907;SDS011;7545;52.092;7.006;2022-09-28T15:08:13;0.77;;;0.60;;
14907;SDS011;7545;52.092;7.006;2022-09-28T15:10:43;1.17;;;0.60;;
14907;SDS011;7545;52.092;7.006;2022-09-28T15:13:23;1.08;;;0.85;;
14907;SDS011;7545;52.092;7.006;2022-09-28T15:15:51;1.50;;;0.40;;
14907;SDS011;7545;52.092;7.006;2022-09-28T15:21:30;0.90;;;0.68;;
14907;SDS011;7545;52.092;7.006;2022-09-28T15:24:00;1.05;;;0.65;;
14907;SDS011;7545;52.092;7.006;2022-09-28T15:26:29;1.15;;;0.55;;
14907;SDS011;7545;52.092;7.006;2022-09-28T15:28:56;1.95;;;0.63;;
14907;SDS011;7545;52.092;7.006;2022-09-28T15:31:24;0.60;;;0.50;;
14907;SDS011;7545;52.092;7.006;2022-09-28T15:33:50;2.08;;;1.00;;
14907;SDS011;7545;52.092;7.006;2022-09-28T15:36:40;1.80;;;1.02;;
14907;SDS011;7545;52.092;7.006;2022-09-28T15:41:54;2.70;;;1.45;;
14907;SDS011;7545;52.092;7.006;2022-09-28T15:44:30;1.55;;;0.95;;
14907;SDS011;7545;52.092;7.006;2022-09-28T15:47:05;0.70;;;0.60;;
14907;SDS011;7545;52.092;7.006;2022-09-28T15:49:42;0.90;;;0.70;;
14907;SDS011;7545;52.092;7.006;2022-09-28T15:55:30;1.90;;;1.10;;
14907;SDS011;7545;52.092;7.006;2022-09-28T16:00:40;6.22;;;1.17;;
14907;SDS011;7545;52.092;7.006;2022-09-28T16:05:48;3.25;;;2.35;;
14907;SDS011;7545;52.092;7.006;2022-09-28T16:11:07;1.45;;;1.00;;
14907;SDS011;7545;52.092;7.006;2022-09-28T16:14:23;2.30;;;0.80;;
14907;SDS011;7545;52.092;7.006;2022-09-28T16:16:46;1.25;;;0.70;;
14907;SDS011;7545;52.092;7.006;2022-09-28T16:21:47;1.02;;;0.60;;
14907;SDS011;7545;52.092;7.006;2022-09-28T16:24:25;1.20;;;0.82;;
14907;SDS011;7545;52.092;7.006;2022-09-28T16:26:58;2.80;;;1.20;;
14907;SDS011;7545;52.092;7.006;2022-09-28T16:29:34;2.10;;;1.40;;
14907;SDS011;7545;52.092;7.006;2022-09-28T16:37:36;5.53;;;1.65;;
14907;SDS011;7545;52.092;7.006;2022-09-28T16:40:07;1.23;;;1.13;;
14907;SDS011;7545;52.092;7.006;2022-09-28T16:42:33;1.52;;;1.20;;
14907;SDS011;7545;52.092;7.006;2022-09-28T16:45:00;1.58;;;1.20;;
14907;SDS011;7545;52.092;7.006;2022-09-28T16:47:29;2.35;;;1.65;;
14907;SDS011;7545;52.092;7.006;2022-09-28T16:49:58;2.88;;;1.48;;
14907;SDS011;7545;52.092;7.006;2022-09-28T16:52:24;1.55;;;1.45;;
14907;SDS011;7545;52.092;7.006;2022-09-28T16:55:11;2.00;;;1.85;;
14907;SDS011;7545;52.092;7.006;2022-09-28T16:57:43;2.40;;;1.60;;
14907;SDS011;7545;52.092;7.006;2022-09-28T17:00:14;2.80;;;1.70;;
14907;SDS011;7545;52.092;7.006;2022-09-28T17:02:43;1.90;;;1.40;;
14907;SDS011;7545;52.092;7.006;2022-09-28T17:05:10;1.80;;;1.30;;
14907;SDS011;7545;52.092;7.006;2022-09-28T17:07:37;1.70;;;1.17;;
14907;SDS011;7545;52.092;7.006;2022-09-28T17:13:08;2.10;;;1.67;;
14907;SDS011;7545;52.092;7.006;2022-09-28T17:15:39;1.80;;;1.25;;
14907;SDS011;7545;52.092;7.006;2022-09-28T17:18:06;1.45;;;1.20;;
14907;SDS011;7545;52.092;7.006;2022-09-28T17:20:33;2.35;;;1.50;;
14907;SDS011;7545;52.092;7.006;2022-09-28T17:23:01;2.83;;;1.10;;
14907;SDS011;7545;52.092;7.006;2022-09-28T17:25:27;1.90;;;1.38;;
14907;SDS011;7545;52.092;7.006;2022-09-28T17:27:53;1.20;;;1.05;;
14907;SDS011;7545;52.092;7.006;2022-09-28T17:30:21;2.90;;;1.20;;
14907;SDS011;7545;52.092;7.006;2022-09-28T17:32:46;3.60;;;1.77;;
14907;SDS011;7545;52.092;7.006;2022-09-28T17:35:12;2.78;;;2.17;;
14907;SDS011;7545;52.092;7.006;2022-09-28T17:37:39;1.85;;;1.75;;
14907;SDS011;7545;52.092;7.006;2022-09-28T17:40:27;1.50;;;1.33;;
14907;SDS011;7545;52.092;7.006;2022-09-28T17:42:52;1.27;;;1.08;;
14907;SDS011;7545;52.092;7.006;2022-09-28T17:45:23;2.80;;;1.05;;
14907;SDS011;7545;52.092;7.006;2022-09-28T17:47:54;1.77;;;1.00;;
14907;SDS011;7545;52.092;7.006;2022-09-28T17:50:21;1.30;;;0.90;;
14907;SDS011;7545;52.092;7.006;2022-09-28T17:52:49;1.90;;;0.82;;
14907;SDS011;7545;52.092;7.006;2022-09-28T17:55:23;0.85;;;0.60;;
14907;SDS011;7545;52.092;7.006;2022-09-28T17:57:53;1.90;;;1.67;;
14907;SDS011;7545;52.092;7.006;2022-09-28T18:00:19;1.55;;;1.00;;
14907;SDS011;7545;52.092;7.006;2022-09-28T18:02:46;2.70;;;1.20;;
14907;SDS011;7545;52.092;7.006;2022-09-28T18:05:12;2.05;;;1.20;;
14907;SDS011;7545;52.092;7.006;2022-09-28T18:07:43;1.48;;;1.05;;
14907;SDS011;7545;52.092;7.006;2022-09-28T18:10:13;2.45;;;1.27;;
14907;SDS011;7545;52.092;7.006;2022-09-28T18:12:40;1.25;;;0.73;;
14907;SDS011;7545;52.092;7.006;2022-09-28T18:15:07;1.60;;;1.30;;
14907;SDS011;7545;52.092;7.006;2022-09-28T18:17:34;2.55;;;1.73;;
14907;SDS011;7545;52.092;7.006;2022-09-28T18:20:00;4.13;;;2.20;;
14907;SDS011;7545;52.092;7.006;2022-09-28T18:22:26;4.63;;;1.80;;
14907;SDS011;7545;52.092;7.006;2022-09-28T18:24:51;2.08;;;1.48;;